NAPEX1 KBOS-KJFK
Flight info
| Callsign | NAPEX1 |
|---|---|
| Flight time | N/A |
| Altitude | 22000 |
| Route | SSOXS7 SSOXS DCT BUZRD DCT SEY PARCH3 |
| Aircraft | C25C/L-SG/L |
Departure
| Time | 2026-05-05 23:20 |
|---|---|
| Airport | Boston Logan International Airport (KBOS) |
Arrival
| Time | N/A |
|---|---|
| Airport | John F. Kennedy International Airport (KJFK) |
| Time | Latitude | Longitude | Altitude | Speed | Heading |
|---|---|---|---|---|---|
| 2026-05-05 23:05 | 42.36754 | -71.01394 | 17 ft | 0 kts | 295° |
| 2026-05-05 23:09 | 42.36747 | -71.01374 | 17 ft | 2 kts | 295° |
| 2026-05-05 23:09 | 42.36740 | -71.01355 | 17 ft | 2 kts | 306° |
| 2026-05-05 23:09 | 42.36735 | -71.01350 | 17 ft | 0 kts | 3° |
| 2026-05-05 23:14 | 42.36761 | -71.01341 | 18 ft | 11 kts | 21° |
| 2026-05-05 23:14 | 42.36881 | -71.01230 | 18 ft | 28 kts | 40° |
| 2026-05-05 23:14 | 42.37051 | -71.01067 | 16 ft | 31 kts | 26° |
| 2026-05-05 23:14 | 42.37192 | -71.00976 | 16 ft | 20 kts | 25° |
| 2026-05-05 23:15 | 42.37260 | -71.00932 | 15 ft | 0 kts | 27° |
| 2026-05-05 23:15 | 42.37312 | -71.00900 | 15 ft | 20 kts | 21° |
| 2026-05-05 23:15 | 42.37510 | -71.00803 | 17 ft | 33 kts | 20° |
| 2026-05-05 23:16 | 42.37578 | -71.00769 | 18 ft | 9 kts | 20° |
| 2026-05-05 23:16 | 42.37649 | -71.00736 | 19 ft | 12 kts | 19° |
| 2026-05-05 23:16 | 42.37736 | -71.00695 | 22 ft | 15 kts | 19° |
| 2026-05-05 23:16 | 42.37785 | -71.00671 | 23 ft | 0 kts | 21° |
| 2026-05-05 23:17 | 42.37825 | -71.00641 | 22 ft | 15 kts | 44° |
| 2026-05-05 23:18 | 42.37834 | -71.00559 | 21 ft | 0 kts | 108° |
| 2026-05-05 23:18 | 42.37831 | -71.00550 | 22 ft | 7 kts | 108° |
| 2026-05-05 23:18 | 42.37727 | -71.00500 | 19 ft | 16 kts | 199° |
| 2026-05-05 23:18 | 42.37719 | -71.00504 | 20 ft | 0 kts | 199° |
| 2026-05-05 23:19 | 42.37714 | -71.00507 | 20 ft | 11 kts | 199° |
| 2026-05-05 23:19 | 42.37196 | -71.00761 | 33 ft | 141 kts | 201° |
| 2026-05-05 23:20 | 42.36159 | -71.01267 | 985 ft | 175 kts | 200° |
| 2026-05-05 23:20 | 42.34877 | -71.01838 | 1891 ft | 209 kts | 198° |
| 2026-05-05 23:20 | 42.33435 | -71.02381 | 3003 ft | 221 kts | 189° |
| 2026-05-05 23:20 | 42.32140 | -71.01648 | 4508 ft | 208 kts | 130° |
| 2026-05-05 23:21 | 42.31628 | -70.99815 | 5791 ft | 213 kts | 101° |
| 2026-05-05 23:21 | 42.31269 | -70.97878 | 7036 ft | 218 kts | 107° |
| 2026-05-05 23:21 | 42.30966 | -70.95858 | 8278 ft | 223 kts | 88° |
| 2026-05-05 23:21 | 42.31313 | -70.93807 | 9484 ft | 227 kts | 74° |
| 2026-05-05 23:22 | 42.31705 | -70.91726 | 10675 ft | 231 kts | 76° |
| 2026-05-05 23:22 | 42.32045 | -70.89581 | 11849 ft | 236 kts | 79° |
| 2026-05-05 23:22 | 42.32345 | -70.87382 | 12986 ft | 240 kts | 79° |
| 2026-05-05 23:22 | 42.32650 | -70.85142 | 14090 ft | 245 kts | 79° |
| 2026-05-05 23:23 | 42.32975 | -70.82864 | 15153 ft | 249 kts | 79° |
| 2026-05-05 23:23 | 42.33226 | -70.80529 | 16168 ft | 254 kts | 91° |
| 2026-05-05 23:23 | 42.32708 | -70.78256 | 17173 ft | 257 kts | 115° |
| 2026-05-05 23:23 | 42.31980 | -70.76028 | 18159 ft | 262 kts | 115° |
| 2026-05-05 23:24 | 42.31193 | -70.73791 | 19146 ft | 266 kts | 116° |
| 2026-05-05 23:24 | 42.30414 | -70.71541 | 20116 ft | 270 kts | 115° |
| 2026-05-05 23:24 | 42.29528 | -70.69293 | 21081 ft | 274 kts | 129° |
| 2026-05-05 23:24 | 42.27990 | -70.67759 | 21913 ft | 283 kts | 156° |
| 2026-05-05 23:25 | 42.26042 | -70.66737 | 22011 ft | 320 kts | 162° |
| 2026-05-05 23:25 | 42.23792 | -70.65814 | 22014 ft | 355 kts | 164° |
| 2026-05-05 23:25 | 42.21336 | -70.64759 | 22016 ft | 385 kts | 161° |
| 2026-05-05 23:25 | 42.18737 | -70.63525 | 22015 ft | 401 kts | 161° |
| 2026-05-05 23:26 | 42.16101 | -70.62313 | 22010 ft | 400 kts | 164° |
| 2026-05-05 23:26 | 42.13332 | -70.61958 | 22006 ft | 408 kts | 185° |
| 2026-05-05 23:26 | 42.10504 | -70.62751 | 22012 ft | 419 kts | 197° |
| 2026-05-05 23:26 | 42.07751 | -70.63961 | 22011 ft | 414 kts | 200° |
| 2026-05-05 23:27 | 42.05092 | -70.65246 | 22009 ft | 410 kts | 200° |
| 2026-05-05 23:27 | 42.02389 | -70.66452 | 22010 ft | 409 kts | 198° |
| 2026-05-05 23:27 | 41.99668 | -70.67603 | 22009 ft | 410 kts | 198° |
| 2026-05-05 23:27 | 41.96948 | -70.68786 | 22010 ft | 411 kts | 199° |
| 2026-05-05 23:28 | 41.94235 | -70.69994 | 22010 ft | 412 kts | 199° |
| 2026-05-05 23:28 | 41.91512 | -70.71199 | 22010 ft | 412 kts | 198° |
| 2026-05-05 23:28 | 41.88781 | -70.72386 | 22010 ft | 412 kts | 198° |
| 2026-05-05 23:28 | 41.86069 | -70.73649 | 22004 ft | 412 kts | 204° |
| 2026-05-05 23:29 | 41.83723 | -70.75813 | 21989 ft | 411 kts | 223° |
| 2026-05-05 23:29 | 41.81974 | -70.78758 | 21989 ft | 410 kts | 241° |
| 2026-05-05 23:29 | 41.80605 | -70.82116 | 21996 ft | 410 kts | 240° |
| 2026-05-05 23:29 | 41.79213 | -70.85446 | 21996 ft | 410 kts | 242° |
| 2026-05-05 23:30 | 41.77855 | -70.88815 | 21998 ft | 411 kts | 242° |
| 2026-05-05 23:30 | 41.76924 | -70.91082 | 22000 ft | 411 kts | 241° |
| 2026-05-05 23:30 | 41.75090 | -70.95513 | 22001 ft | 411 kts | 241° |
| 2026-05-05 23:30 | 41.73703 | -70.98850 | 22002 ft | 411 kts | 241° |
| 2026-05-05 23:31 | 41.72324 | -71.02206 | 22003 ft | 411 kts | 241° |
| 2026-05-05 23:31 | 41.70936 | -71.05551 | 22004 ft | 411 kts | 241° |
| 2026-05-05 23:31 | 41.69554 | -71.08894 | 22004 ft | 411 kts | 241° |
| 2026-05-05 23:31 | 41.68161 | -71.12235 | 22004 ft | 411 kts | 241° |
| 2026-05-05 23:32 | 41.66795 | -71.15539 | 22005 ft | 411 kts | 241° |
| 2026-05-05 23:32 | 41.65401 | -71.18879 | 22005 ft | 411 kts | 241° |